sensor_id;sensor_type;location;lat;lon;timestamp;P1;durP1;ratioP1;P2;durP2;ratioP2
55913;SDS011;58179;48.776;9.124;2022-09-17T00:00:56;14.55;;;7.60;;
55913;SDS011;58179;48.776;9.124;2022-09-17T00:03:23;12.75;;;7.32;;
55913;SDS011;58179;48.776;9.124;2022-09-17T00:05:49;16.27;;;7.78;;
55913;SDS011;58179;48.776;9.124;2022-09-17T00:08:24;21.67;;;7.63;;
55913;SDS011;58179;48.776;9.124;2022-09-17T00:10:51;18.70;;;7.88;;
55913;SDS011;58179;48.776;9.124;2022-09-17T00:13:17;15.80;;;7.57;;
55913;SDS011;58179;48.776;9.124;2022-09-17T00:15:44;14.32;;;7.25;;
55913;SDS011;58179;48.776;9.124;2022-09-17T00:18:11;12.88;;;7.32;;
55913;SDS011;58179;48.776;9.124;2022-09-17T00:20:39;13.98;;;7.53;;
55913;SDS011;58179;48.776;9.124;2022-09-17T00:23:06;14.87;;;7.80;;
55913;SDS011;58179;48.776;9.124;2022-09-17T00:25:33;16.42;;;7.70;;
55913;SDS011;58179;48.776;9.124;2022-09-17T00:28:03;16.42;;;7.95;;
55913;SDS011;58179;48.776;9.124;2022-09-17T00:30:29;13.63;;;8.23;;
55913;SDS011;58179;48.776;9.124;2022-09-17T00:32:55;19.25;;;8.25;;
55913;SDS011;58179;48.776;9.124;2022-09-17T00:35:22;17.75;;;8.57;;
55913;SDS011;58179;48.776;9.124;2022-09-17T00:37:48;14.13;;;7.35;;
55913;SDS011;58179;48.776;9.124;2022-09-17T00:40:14;13.60;;;7.93;;
55913;SDS011;58179;48.776;9.124;2022-09-17T00:42:40;15.73;;;8.03;;
55913;SDS011;58179;48.776;9.124;2022-09-17T00:45:08;13.55;;;8.15;;
55913;SDS011;58179;48.776;9.124;2022-09-17T00:47:35;21.17;;;8.80;;
55913;SDS011;58179;48.776;9.124;2022-09-17T00:50:06;18.15;;;8.40;;
55913;SDS011;58179;48.776;9.124;2022-09-17T00:52:39;19.35;;;9.13;;
55913;SDS011;58179;48.776;9.124;2022-09-17T00:55:11;16.08;;;8.65;;
55913;SDS011;58179;48.776;9.124;2022-09-17T00:57:42;17.88;;;8.63;;
55913;SDS011;58179;48.776;9.124;2022-09-17T01:00:11;16.75;;;8.13;;
55913;SDS011;58179;48.776;9.124;2022-09-17T01:02:39;17.35;;;7.93;;
55913;SDS011;58179;48.776;9.124;2022-09-17T01:05:07;21.10;;;8.38;;
55913;SDS011;58179;48.776;9.124;2022-09-17T01:07:37;18.75;;;8.80;;
55913;SDS011;58179;48.776;9.124;2022-09-17T01:10:33;14.55;;;7.82;;
55913;SDS011;58179;48.776;9.124;2022-09-17T01:13:16;16.83;;;8.15;;
55913;SDS011;58179;48.776;9.124;2022-09-17T01:15:57;12.82;;;7.53;;
55913;SDS011;58179;48.776;9.124;2022-09-17T01:18:34;13.25;;;7.95;;
55913;SDS011;58179;48.776;9.124;2022-09-17T01:21:25;13.02;;;7.55;;
55913;SDS011;58179;48.776;9.124;2022-09-17T01:24:16;12.57;;;7.80;;
55913;SDS011;58179;48.776;9.124;2022-09-17T01:30:32;13.80;;;8.27;;
55913;SDS011;58179;48.776;9.124;2022-09-17T01:33:29;14.25;;;7.85;;
55913;SDS011;58179;48.776;9.124;2022-09-17T01:38:54;12.73;;;7.77;;
55913;SDS011;58179;48.776;9.124;2022-09-17T01:41:29;16.05;;;8.20;;
55913;SDS011;58179;48.776;9.124;2022-09-17T01:44:01;11.68;;;7.55;;
55913;SDS011;58179;48.776;9.124;2022-09-17T01:46:36;11.87;;;8.33;;
55913;SDS011;58179;48.776;9.124;2022-09-17T01:49:07;12.30;;;8.02;;
55913;SDS011;58179;48.776;9.124;2022-09-17T01:51:37;12.88;;;7.75;;
55913;SDS011;58179;48.776;9.124;2022-09-17T01:54:11;17.33;;;8.73;;
55913;SDS011;58179;48.776;9.124;2022-09-17T01:56:44;14.02;;;8.15;;
55913;SDS011;58179;48.776;9.124;2022-09-17T01:59:17;13.38;;;8.15;;
55913;SDS011;58179;48.776;9.124;2022-09-17T02:01:50;11.45;;;7.97;;
55913;SDS011;58179;48.776;9.124;2022-09-17T02:04:23;13.82;;;8.30;;
55913;SDS011;58179;48.776;9.124;2022-09-17T02:06:56;16.70;;;9.13;;
55913;SDS011;58179;48.776;9.124;2022-09-17T02:09:29;17.10;;;8.85;;
55913;SDS011;58179;48.776;9.124;2022-09-17T02:12:01;12.85;;;8.13;;
55913;SDS011;58179;48.776;9.124;2022-09-17T02:14:33;14.95;;;8.32;;
55913;SDS011;58179;48.776;9.124;2022-09-17T02:17:04;14.65;;;8.98;;
55913;SDS011;58179;48.776;9.124;2022-09-17T02:19:36;15.77;;;9.00;;
55913;SDS011;58179;48.776;9.124;2022-09-17T02:22:05;14.43;;;8.60;;
55913;SDS011;58179;48.776;9.124;2022-09-17T02:24:44;18.85;;;7.88;;
55913;SDS011;58179;48.776;9.124;2022-09-17T02:27:22;21.08;;;8.40;;
55913;SDS011;58179;48.776;9.124;2022-09-17T02:29:58;14.07;;;8.15;;
55913;SDS011;58179;48.776;9.124;2022-09-17T02:32:26;16.15;;;7.75;;
55913;SDS011;58179;48.776;9.124;2022-09-17T02:34:52;14.68;;;8.35;;
55913;SDS011;58179;48.776;9.124;2022-09-17T02:37:18;16.27;;;8.18;;
55913;SDS011;58179;48.776;9.124;2022-09-17T02:39:44;14.82;;;7.93;;
55913;SDS011;58179;48.776;9.124;2022-09-17T02:42:12;15.77;;;7.90;;
55913;SDS011;58179;48.776;9.124;2022-09-17T02:44:56;14.37;;;7.67;;
55913;SDS011;58179;48.776;9.124;2022-09-17T02:47:38;15.93;;;7.83;;
55913;SDS011;58179;48.776;9.124;2022-09-17T02:50:33;15.05;;;7.55;;
55913;SDS011;58179;48.776;9.124;2022-09-17T02:53:30;18.40;;;8.43;;
55913;SDS011;58179;48.776;9.124;2022-09-17T02:56:07;20.52;;;7.75;;
55913;SDS011;58179;48.776;9.124;2022-09-17T02:58:46;17.52;;;7.65;;
55913;SDS011;58179;48.776;9.124;2022-09-17T03:01:19;14.02;;;7.22;;
55913;SDS011;58179;48.776;9.124;2022-09-17T03:03:53;14.65;;;7.35;;
55913;SDS011;58179;48.776;9.124;2022-09-17T03:06:24;18.33;;;7.65;;
55913;SDS011;58179;48.776;9.124;2022-09-17T03:08:50;12.73;;;7.40;;
55913;SDS011;58179;48.776;9.124;2022-09-17T03:11:17;17.00;;;7.53;;
55913;SDS011;58179;48.776;9.124;2022-09-17T03:13:43;12.43;;;7.50;;
55913;SDS011;58179;48.776;9.124;2022-09-17T03:16:09;13.80;;;7.55;;
55913;SDS011;58179;48.776;9.124;2022-09-17T03:18:35;18.60;;;7.87;;
55913;SDS011;58179;48.776;9.124;2022-09-17T03:21:02;15.75;;;7.63;;
55913;SDS011;58179;48.776;9.124;2022-09-17T03:23:28;16.63;;;7.53;;
55913;SDS011;58179;48.776;9.124;2022-09-17T03:25:54;15.68;;;7.15;;
55913;SDS011;58179;48.776;9.124;2022-09-17T03:28:20;17.95;;;7.25;;
55913;SDS011;58179;48.776;9.124;2022-09-17T03:30:46;11.45;;;6.70;;
55913;SDS011;58179;48.776;9.124;2022-09-17T03:33:12;14.70;;;7.13;;
55913;SDS011;58179;48.776;9.124;2022-09-17T03:35:41;13.13;;;6.97;;
55913;SDS011;58179;48.776;9.124;2022-09-17T03:38:08;12.75;;;6.93;;
55913;SDS011;58179;48.776;9.124;2022-09-17T03:40:34;16.35;;;7.55;;
55913;SDS011;58179;48.776;9.124;2022-09-17T03:43:00;13.32;;;7.25;;
55913;SDS011;58179;48.776;9.124;2022-09-17T03:45:26;15.95;;;6.50;;
55913;SDS011;58179;48.776;9.124;2022-09-17T03:47:52;13.03;;;6.77;;
55913;SDS011;58179;48.776;9.124;2022-09-17T03:50:18;20.30;;;7.20;;
55913;SDS011;58179;48.776;9.124;2022-09-17T03:52:43;11.77;;;6.00;;
55913;SDS011;58179;48.776;9.124;2022-09-17T03:55:11;13.73;;;6.67;;
55913;SDS011;58179;48.776;9.124;2022-09-17T03:57:37;15.48;;;6.60;;
55913;SDS011;58179;48.776;9.124;2022-09-17T04:00:03;19.13;;;7.17;;
55913;SDS011;58179;48.776;9.124;2022-09-17T04:02:31;13.35;;;5.85;;
55913;SDS011;58179;48.776;9.124;2022-09-17T04:04:56;10.45;;;6.00;;
55913;SDS011;58179;48.776;9.124;2022-09-17T04:07:22;14.07;;;6.30;;
55913;SDS011;58179;48.776;9.124;2022-09-17T04:09:48;9.23;;;5.87;;
55913;SDS011;58179;48.776;9.124;2022-09-17T04:12:15;12.15;;;6.05;;
55913;SDS011;58179;48.776;9.124;2022-09-17T04:14:41;12.40;;;6.40;;
55913;SDS011;58179;48.776;9.124;2022-09-17T04:17:07;14.57;;;6.60;;
55913;SDS011;58179;48.776;9.124;2022-09-17T04:19:33;14.88;;;5.88;;
55913;SDS011;58179;48.776;9.124;2022-09-17T04:21:59;14.30;;;5.63;;
55913;SDS011;58179;48.776;9.124;2022-09-17T04:24:25;14.23;;;5.57;;
55913;SDS011;58179;48.776;9.124;2022-09-17T04:26:51;14.73;;;6.03;;
55913;SDS011;58179;48.776;9.124;2022-09-17T04:29:18;17.43;;;5.87;;
55913;SDS011;58179;48.776;9.124;2022-09-17T04:31:44;17.67;;;5.65;;
55913;SDS011;58179;48.776;9.124;2022-09-17T04:34:10;11.93;;;5.10;;
55913;SDS011;58179;48.776;9.124;2022-09-17T04:36:36;12.60;;;5.82;;
55913;SDS011;58179;48.776;9.124;2022-09-17T04:39:02;13.57;;;5.80;;
55913;SDS011;58179;48.776;9.124;2022-09-17T04:41:28;10.90;;;5.30;;
55913;SDS011;58179;48.776;9.124;2022-09-17T04:43:54;22.45;;;6.90;;
55913;SDS011;58179;48.776;9.124;2022-09-17T04:46:21;14.52;;;6.18;;
55913;SDS011;58179;48.776;9.124;2022-09-17T04:48:47;11.38;;;5.90;;
55913;SDS011;58179;48.776;9.124;2022-09-17T04:51:13;19.25;;;6.78;;
55913;SDS011;58179;48.776;9.124;2022-09-17T04:53:39;16.15;;;6.35;;
55913;SDS011;58179;48.776;9.124;2022-09-17T04:56:05;15.70;;;7.20;;
55913;SDS011;58179;48.776;9.124;2022-09-17T04:58:30;19.38;;;7.22;;
55913;SDS011;58179;48.776;9.124;2022-09-17T05:00:57;19.55;;;7.28;;
55913;SDS011;58179;48.776;9.124;2022-09-17T05:03:24;20.63;;;7.27;;
55913;SDS011;58179;48.776;9.124;2022-09-17T05:05:50;19.07;;;7.13;;
55913;SDS011;58179;48.776;9.124;2022-09-17T05:08:16;15.50;;;7.03;;
55913;SDS011;58179;48.776;9.124;2022-09-17T05:10:42;18.55;;;7.32;;
55913;SDS011;58179;48.776;9.124;2022-09-17T05:13:09;16.77;;;7.20;;
55913;SDS011;58179;48.776;9.124;2022-09-17T05:15:34;15.93;;;6.97;;
55913;SDS011;58179;48.776;9.124;2022-09-17T05:18:00;16.15;;;6.75;;
55913;SDS011;58179;48.776;9.124;2022-09-17T05:20:28;20.23;;;7.38;;
55913;SDS011;58179;48.776;9.124;2022-09-17T05:22:54;18.92;;;7.18;;
55913;SDS011;58179;48.776;9.124;2022-09-17T05:25:20;14.00;;;6.88;;
55913;SDS011;58179;48.776;9.124;2022-09-17T05:27:48;12.77;;;7.00;;
55913;SDS011;58179;48.776;9.124;2022-09-17T05:30:16;18.80;;;7.10;;
55913;SDS011;58179;48.776;9.124;2022-09-17T05:32:42;16.58;;;6.70;;
55913;SDS011;58179;48.776;9.124;2022-09-17T05:35:08;14.07;;;7.30;;
55913;SDS011;58179;48.776;9.124;2022-09-17T05:37:36;22.08;;;7.65;;
55913;SDS011;58179;48.776;9.124;2022-09-17T05:40:02;15.00;;;7.30;;
55913;SDS011;58179;48.776;9.124;2022-09-17T05:42:30;15.13;;;7.00;;
55913;SDS011;58179;48.776;9.124;2022-09-17T05:44:56;15.80;;;7.95;;
55913;SDS011;58179;48.776;9.124;2022-09-17T05:47:22;18.75;;;6.90;;
55913;SDS011;58179;48.776;9.124;2022-09-17T05:49:48;20.50;;;7.28;;
55913;SDS011;58179;48.776;9.124;2022-09-17T05:52:14;18.77;;;7.93;;
55913;SDS011;58179;48.776;9.124;2022-09-17T05:54:41;18.00;;;7.60;;
55913;SDS011;58179;48.776;9.124;2022-09-17T05:57:07;16.98;;;7.97;;
55913;SDS011;58179;48.776;9.124;2022-09-17T05:59:33;14.65;;;8.15;;
55913;SDS011;58179;48.776;9.124;2022-09-17T06:02:00;15.88;;;8.35;;
55913;SDS011;58179;48.776;9.124;2022-09-17T06:04:26;22.57;;;7.60;;
55913;SDS011;58179;48.776;9.124;2022-09-17T06:06:52;19.20;;;7.70;;
55913;SDS011;58179;48.776;9.124;2022-09-17T06:09:17;18.90;;;8.02;;
55913;SDS011;58179;48.776;9.124;2022-09-17T06:11:45;15.27;;;7.95;;
55913;SDS011;58179;48.776;9.124;2022-09-17T06:14:11;23.67;;;8.80;;
55913;SDS011;58179;48.776;9.124;2022-09-17T06:16:37;17.63;;;8.20;;
55913;SDS011;58179;48.776;9.124;2022-09-17T06:19:02;18.27;;;8.47;;
55913;SDS011;58179;48.776;9.124;2022-09-17T06:21:28;20.70;;;8.15;;
55913;SDS011;58179;48.776;9.124;2022-09-17T06:23:54;19.13;;;7.40;;
55913;SDS011;58179;48.776;9.124;2022-09-17T06:26:20;19.10;;;7.57;;
55913;SDS011;58179;48.776;9.124;2022-09-17T06:28:47;17.80;;;7.77;;
55913;SDS011;58179;48.776;9.124;2022-09-17T06:31:13;15.90;;;7.97;;
55913;SDS011;58179;48.776;9.124;2022-09-17T06:33:39;17.03;;;7.73;;
55913;SDS011;58179;48.776;9.124;2022-09-17T06:36:07;15.68;;;7.10;;
55913;SDS011;58179;48.776;9.124;2022-09-17T06:38:36;16.85;;;6.45;;
55913;SDS011;58179;48.776;9.124;2022-09-17T06:41:02;17.65;;;6.85;;
55913;SDS011;58179;48.776;9.124;2022-09-17T06:43:28;14.98;;;6.80;;
55913;SDS011;58179;48.776;9.124;2022-09-17T06:45:56;12.85;;;6.13;;
55913;SDS011;58179;48.776;9.124;2022-09-17T06:48:24;14.70;;;6.70;;
55913;SDS011;58179;48.776;9.124;2022-09-17T06:50:51;13.25;;;5.60;;
55913;SDS011;58179;48.776;9.124;2022-09-17T06:53:18;15.15;;;5.82;;
55913;SDS011;58179;48.776;9.124;2022-09-17T06:55:44;15.35;;;5.97;;
55913;SDS011;58179;48.776;9.124;2022-09-17T06:58:10;17.40;;;5.90;;
55913;SDS011;58179;48.776;9.124;2022-09-17T07:00:36;18.33;;;6.38;;
55913;SDS011;58179;48.776;9.124;2022-09-17T07:03:03;14.68;;;6.05;;
55913;SDS011;58179;48.776;9.124;2022-09-17T07:05:38;17.25;;;6.40;;
55913;SDS011;58179;48.776;9.124;2022-09-17T07:08:04;14.80;;;6.30;;
55913;SDS011;58179;48.776;9.124;2022-09-17T07:10:30;13.73;;;5.88;;
55913;SDS011;58179;48.776;9.124;2022-09-17T07:12:56;15.77;;;6.93;;
55913;SDS011;58179;48.776;9.124;2022-09-17T07:15:23;17.58;;;6.45;;
55913;SDS011;58179;48.776;9.124;2022-09-17T07:17:49;13.80;;;6.15;;
55913;SDS011;58179;48.776;9.124;2022-09-17T07:20:16;13.35;;;6.63;;
55913;SDS011;58179;48.776;9.124;2022-09-17T07:22:42;16.55;;;6.30;;
55913;SDS011;58179;48.776;9.124;2022-09-17T07:25:09;14.97;;;6.50;;
55913;SDS011;58179;48.776;9.124;2022-09-17T07:27:35;11.77;;;6.10;;
55913;SDS011;58179;48.776;9.124;2022-09-17T07:30:01;13.35;;;6.10;;
55913;SDS011;58179;48.776;9.124;2022-09-17T07:32:28;15.18;;;6.40;;
55913;SDS011;58179;48.776;9.124;2022-09-17T07:34:55;16.52;;;6.10;;
55913;SDS011;58179;48.776;9.124;2022-09-17T07:37:22;10.50;;;5.95;;
55913;SDS011;58179;48.776;9.124;2022-09-17T07:39:48;17.67;;;7.75;;
55913;SDS011;58179;48.776;9.124;2022-09-17T07:42:14;17.70;;;7.28;;
55913;SDS011;58179;48.776;9.124;2022-09-17T07:44:40;15.30;;;8.27;;
55913;SDS011;58179;48.776;9.124;2022-09-17T07:47:06;17.67;;;7.38;;
55913;SDS011;58179;48.776;9.124;2022-09-17T07:49:32;13.17;;;8.50;;
55913;SDS011;58179;48.776;9.124;2022-09-17T07:51:58;19.08;;;9.05;;
55913;SDS011;58179;48.776;9.124;2022-09-17T07:54:31;13.93;;;8.60;;
55913;SDS011;58179;48.776;9.124;2022-09-17T07:56:57;12.50;;;8.27;;
55913;SDS011;58179;48.776;9.124;2022-09-17T07:59:23;18.15;;;8.80;;
55913;SDS011;58179;48.776;9.124;2022-09-17T08:01:49;19.17;;;9.30;;
55913;SDS011;58179;48.776;9.124;2022-09-17T08:04:15;19.50;;;8.90;;
55913;SDS011;58179;48.776;9.124;2022-09-17T08:06:41;22.67;;;9.43;;
55913;SDS011;58179;48.776;9.124;2022-09-17T08:09:07;22.17;;;9.45;;
55913;SDS011;58179;48.776;9.124;2022-09-17T08:11:36;16.45;;;9.27;;
55913;SDS011;58179;48.776;9.124;2022-09-17T08:14:02;21.67;;;9.13;;
55913;SDS011;58179;48.776;9.124;2022-09-17T08:16:29;19.15;;;9.75;;
55913;SDS011;58179;48.776;9.124;2022-09-17T08:18:56;21.02;;;9.88;;
55913;SDS011;58179;48.776;9.124;2022-09-17T08:21:25;25.00;;;9.80;;
55913;SDS011;58179;48.776;9.124;2022-09-17T08:23:50;24.27;;;9.27;;
55913;SDS011;58179;48.776;9.124;2022-09-17T08:26:17;23.05;;;9.73;;
55913;SDS011;58179;48.776;9.124;2022-09-17T08:28:48;28.53;;;9.83;;
55913;SDS011;58179;48.776;9.124;2022-09-17T08:31:20;24.55;;;8.32;;
55913;SDS011;58179;48.776;9.124;2022-09-17T08:33:47;22.55;;;8.63;;
55913;SDS011;58179;48.776;9.124;2022-09-17T08:36:15;16.75;;;8.20;;
55913;SDS011;58179;48.776;9.124;2022-09-17T08:38:43;23.50;;;9.85;;
55913;SDS011;58179;48.776;9.124;2022-09-17T08:41:14;24.03;;;9.73;;
55913;SDS011;58179;48.776;9.124;2022-09-17T08:43:51;27.77;;;9.83;;
55913;SDS011;58179;48.776;9.124;2022-09-17T08:46:37;26.07;;;8.90;;
55913;SDS011;58179;48.776;9.124;2022-09-17T08:49:11;26.85;;;9.50;;
55913;SDS011;58179;48.776;9.124;2022-09-17T08:51:51;19.20;;;8.48;;
55913;SDS011;58179;48.776;9.124;2022-09-17T08:54:43;17.98;;;8.07;;
55913;SDS011;58179;48.776;9.124;2022-09-17T08:57:21;25.33;;;8.73;;
55913;SDS011;58179;48.776;9.124;2022-09-17T08:59:58;25.05;;;8.10;;
55913;SDS011;58179;48.776;9.124;2022-09-17T09:02:32;28.13;;;7.95;;
55913;SDS011;58179;48.776;9.124;2022-09-17T09:05:14;19.17;;;6.47;;
55913;SDS011;58179;48.776;9.124;2022-09-17T09:07:44;25.88;;;6.22;;
55913;SDS011;58179;48.776;9.124;2022-09-17T09:10:17;17.08;;;5.72;;
55913;SDS011;58179;48.776;9.124;2022-09-17T09:12:49;19.98;;;5.90;;
55913;SDS011;58179;48.776;9.124;2022-09-17T09:15:22;23.23;;;5.88;;
55913;SDS011;58179;48.776;9.124;2022-09-17T09:18:03;23.67;;;5.65;;
55913;SDS011;58179;48.776;9.124;2022-09-17T09:20:42;20.30;;;4.97;;
55913;SDS011;58179;48.776;9.124;2022-09-17T09:23:16;20.88;;;4.57;;
55913;SDS011;58179;48.776;9.124;2022-09-17T09:25:52;18.80;;;5.22;;
55913;SDS011;58179;48.776;9.124;2022-09-17T09:28:34;19.90;;;4.60;;
55913;SDS011;58179;48.776;9.124;2022-09-17T09:31:21;22.75;;;5.43;;
55913;SDS011;58179;48.776;9.124;2022-09-17T09:34:22;17.73;;;4.85;;
55913;SDS011;58179;48.776;9.124;2022-09-17T09:36:51;29.35;;;5.10;;
55913;SDS011;58179;48.776;9.124;2022-09-17T09:39:27;24.45;;;4.85;;
55913;SDS011;58179;48.776;9.124;2022-09-17T09:41:59;22.38;;;4.57;;
55913;SDS011;58179;48.776;9.124;2022-09-17T09:44:32;21.55;;;4.78;;
55913;SDS011;58179;48.776;9.124;2022-09-17T09:47:06;24.63;;;4.22;;
55913;SDS011;58179;48.776;9.124;2022-09-17T09:49:56;22.95;;;4.90;;
55913;SDS011;58179;48.776;9.124;2022-09-17T09:52:38;17.98;;;4.90;;
55913;SDS011;58179;48.776;9.124;2022-09-17T09:55:19;23.00;;;4.25;;
55913;SDS011;58179;48.776;9.124;2022-09-17T09:58:17;15.15;;;4.60;;
55913;SDS011;58179;48.776;9.124;2022-09-17T10:00:53;15.87;;;5.23;;
55913;SDS011;58179;48.776;9.124;2022-09-17T10:03:21;16.52;;;5.40;;
55913;SDS011;58179;48.776;9.124;2022-09-17T10:05:51;21.00;;;6.38;;
55913;SDS011;58179;48.776;9.124;2022-09-17T10:08:20;22.10;;;5.15;;
55913;SDS011;58179;48.776;9.124;2022-09-17T10:10:56;18.17;;;5.40;;
55913;SDS011;58179;48.776;9.124;2022-09-17T10:13:25;11.88;;;4.97;;
55913;SDS011;58179;48.776;9.124;2022-09-17T10:15:54;20.15;;;4.35;;
55913;SDS011;58179;48.776;9.124;2022-09-17T10:18:22;15.57;;;4.70;;
55913;SDS011;58179;48.776;9.124;2022-09-17T10:20:50;11.63;;;4.18;;
55913;SDS011;58179;48.776;9.124;2022-09-17T10:23:22;10.57;;;3.60;;
55913;SDS011;58179;48.776;9.124;2022-09-17T10:25:51;11.40;;;3.63;;
55913;SDS011;58179;48.776;9.124;2022-09-17T10:28:24;11.63;;;3.80;;
55913;SDS011;58179;48.776;9.124;2022-09-17T10:30:58;5.43;;;3.28;;
55913;SDS011;58179;48.776;9.124;2022-09-17T10:33:37;10.38;;;3.20;;
55913;SDS011;58179;48.776;9.124;2022-09-17T10:36:39;11.43;;;3.35;;
55913;SDS011;58179;48.776;9.124;2022-09-17T10:39:17;13.55;;;3.00;;
55913;SDS011;58179;48.776;9.124;2022-09-17T10:41:58;9.25;;;2.58;;
55913;SDS011;58179;48.776;9.124;2022-09-17T10:44:29;7.63;;;3.00;;
55913;SDS011;58179;48.776;9.124;2022-09-17T10:47:03;11.10;;;3.25;;
55913;SDS011;58179;48.776;9.124;2022-09-17T10:49:41;7.18;;;2.47;;
55913;SDS011;58179;48.776;9.124;2022-09-17T10:52:12;11.57;;;3.00;;
55913;SDS011;58179;48.776;9.124;2022-09-17T10:54:58;11.57;;;3.47;;
55913;SDS011;58179;48.776;9.124;2022-09-17T10:57:52;10.75;;;3.08;;
55913;SDS011;58179;48.776;9.124;2022-09-17T11:00:30;7.57;;;2.60;;
55913;SDS011;58179;48.776;9.124;2022-09-17T11:03:22;13.95;;;3.00;;
55913;SDS011;58179;48.776;9.124;2022-09-17T11:06:26;9.25;;;2.75;;
55913;SDS011;58179;48.776;9.124;2022-09-17T11:09:16;9.02;;;2.25;;
55913;SDS011;58179;48.776;9.124;2022-09-17T11:11:59;7.95;;;2.53;;
55913;SDS011;58179;48.776;9.124;2022-09-17T11:14:53;8.32;;;2.50;;
55913;SDS011;58179;48.776;9.124;2022-09-17T11:20:42;6.60;;;2.22;;
55913;SDS011;58179;48.776;9.124;2022-09-17T11:23:29;7.75;;;2.17;;
55913;SDS011;58179;48.776;9.124;2022-09-17T11:26:16;8.95;;;2.38;;
55913;SDS011;58179;48.776;9.124;2022-09-17T11:28:56;7.53;;;2.25;;
55913;SDS011;58179;48.776;9.124;2022-09-17T11:31:36;4.90;;;1.98;;
55913;SDS011;58179;48.776;9.124;2022-09-17T11:34:14;7.07;;;1.90;;
55913;SDS011;58179;48.776;9.124;2022-09-17T11:36:51;5.90;;;1.90;;
55913;SDS011;58179;48.776;9.124;2022-09-17T11:39:27;8.57;;;1.90;;
55913;SDS011;58179;48.776;9.124;2022-09-17T11:42:01;6.15;;;2.15;;
55913;SDS011;58179;48.776;9.124;2022-09-17T11:44:44;9.95;;;1.98;;
55913;SDS011;58179;48.776;9.124;2022-09-17T11:47:18;6.47;;;1.90;;
55913;SDS011;58179;48.776;9.124;2022-09-17T11:49:49;6.40;;;2.10;;
55913;SDS011;58179;48.776;9.124;2022-09-17T11:52:22;6.55;;;2.00;;
55913;SDS011;58179;48.776;9.124;2022-09-17T11:54:58;9.07;;;1.98;;
55913;SDS011;58179;48.776;9.124;2022-09-17T11:57:32;10.30;;;2.38;;
55913;SDS011;58179;48.776;9.124;2022-09-17T12:00:03;5.70;;;1.38;;
55913;SDS011;58179;48.776;9.124;2022-09-17T12:02:41;6.80;;;1.90;;
55913;SDS011;58179;48.776;9.124;2022-09-17T12:05:16;4.90;;;1.60;;
55913;SDS011;58179;48.776;9.124;2022-09-17T12:07:47;7.70;;;2.35;;
55913;SDS011;58179;48.776;9.124;2022-09-17T12:10:31;6.45;;;1.90;;
55913;SDS011;58179;48.776;9.124;2022-09-17T12:13:06;7.95;;;2.95;;
55913;SDS011;58179;48.776;9.124;2022-09-17T12:15:44;4.30;;;1.77;;
55913;SDS011;58179;48.776;9.124;2022-09-17T12:18:17;4.43;;;1.85;;
55913;SDS011;58179;48.776;9.124;2022-09-17T12:20:54;7.10;;;2.33;;
55913;SDS011;58179;48.776;9.124;2022-09-17T12:23:30;6.30;;;1.77;;
55913;SDS011;58179;48.776;9.124;2022-09-17T12:26:06;7.35;;;2.00;;
55913;SDS011;58179;48.776;9.124;2022-09-17T12:28:45;5.22;;;1.80;;
55913;SDS011;58179;48.776;9.124;2022-09-17T12:31:23;3.47;;;1.40;;
55913;SDS011;58179;48.776;9.124;2022-09-17T12:33:57;6.53;;;1.60;;
55913;SDS011;58179;48.776;9.124;2022-09-17T12:36:39;7.30;;;1.92;;
55913;SDS011;58179;48.776;9.124;2022-09-17T12:42:37;4.40;;;1.60;;
55913;SDS011;58179;48.776;9.124;2022-09-17T12:45:19;7.53;;;2.17;;
55913;SDS011;58179;48.776;9.124;2022-09-17T12:48:20;8.52;;;1.75;;
55913;SDS011;58179;48.776;9.124;2022-09-17T12:51:13;2.67;;;1.30;;
55913;SDS011;58179;48.776;9.124;2022-09-17T12:53:57;4.22;;;1.77;;
55913;SDS011;58179;48.776;9.124;2022-09-17T12:56:37;6.25;;;2.00;;
55913;SDS011;58179;48.776;9.124;2022-09-17T12:59:18;4.57;;;1.80;;
55913;SDS011;58179;48.776;9.124;2022-09-17T13:01:49;3.25;;;1.90;;
55913;SDS011;58179;48.776;9.124;2022-09-17T13:04:23;5.20;;;1.90;;
55913;SDS011;58179;48.776;9.124;2022-09-17T13:07:15;8.95;;;2.30;;
55913;SDS011;58179;48.776;9.124;2022-09-17T13:10:10;5.60;;;2.65;;
55913;SDS011;58179;48.776;9.124;2022-09-17T13:12:58;5.97;;;2.78;;
55913;SDS011;58179;48.776;9.124;2022-09-17T13:15:40;6.13;;;3.20;;
55913;SDS011;58179;48.776;9.124;2022-09-17T13:18:16;7.10;;;3.25;;
55913;SDS011;58179;48.776;9.124;2022-09-17T13:20:54;11.32;;;3.25;;
55913;SDS011;58179;48.776;9.124;2022-09-17T13:23:31;8.03;;;2.93;;
55913;SDS011;58179;48.776;9.124;2022-09-17T13:26:02;7.53;;;3.13;;
55913;SDS011;58179;48.776;9.124;2022-09-17T13:28:36;9.23;;;3.50;;
55913;SDS011;58179;48.776;9.124;2022-09-17T13:31:09;7.65;;;3.75;;
55913;SDS011;58179;48.776;9.124;2022-09-17T13:33:52;10.90;;;3.60;;
55913;SDS011;58179;48.776;9.124;2022-09-17T13:36:36;6.57;;;3.00;;
55913;SDS011;58179;48.776;9.124;2022-09-17T13:42:05;6.28;;;2.10;;
55913;SDS011;58179;48.776;9.124;2022-09-17T13:44:37;2.97;;;1.30;;
55913;SDS011;58179;48.776;9.124;2022-09-17T13:47:09;4.57;;;1.42;;
55913;SDS011;58179;48.776;9.124;2022-09-17T13:49:48;4.40;;;1.40;;
55913;SDS011;58179;48.776;9.124;2022-09-17T13:52:35;6.78;;;1.60;;
55913;SDS011;58179;48.776;9.124;2022-09-17T13:55:05;6.50;;;1.40;;
55913;SDS011;58179;48.776;9.124;2022-09-17T13:57:42;3.42;;;1.33;;
55913;SDS011;58179;48.776;9.124;2022-09-17T14:09:30;3.53;;;1.30;;
55913;SDS011;58179;48.776;9.124;2022-09-17T14:15:30;3.00;;;1.38;;
55913;SDS011;58179;48.776;9.124;2022-09-17T14:18:32;4.97;;;1.30;;
55913;SDS011;58179;48.776;9.124;2022-09-17T14:21:17;4.97;;;1.45;;
55913;SDS011;58179;48.776;9.124;2022-09-17T14:23:53;4.20;;;1.30;;
55913;SDS011;58179;48.776;9.124;2022-09-17T14:29:33;6.10;;;1.70;;
55913;SDS011;58179;48.776;9.124;2022-09-17T14:32:29;3.67;;;1.55;;
55913;SDS011;58179;48.776;9.124;2022-09-17T14:35:00;6.50;;;1.50;;
55913;SDS011;58179;48.776;9.124;2022-09-17T14:37:39;5.43;;;1.20;;
55913;SDS011;58179;48.776;9.124;2022-09-17T14:40:09;2.90;;;1.20;;
55913;SDS011;58179;48.776;9.124;2022-09-17T14:42:41;3.73;;;1.10;;
55913;SDS011;58179;48.776;9.124;2022-09-17T14:45:13;3.23;;;1.40;;
55913;SDS011;58179;48.776;9.124;2022-09-17T14:47:44;4.53;;;1.40;;
55913;SDS011;58179;48.776;9.124;2022-09-17T14:50:18;4.10;;;1.30;;
55913;SDS011;58179;48.776;9.124;2022-09-17T14:52:47;4.45;;;1.35;;
55913;SDS011;58179;48.776;9.124;2022-09-17T14:55:15;3.70;;;1.25;;
55913;SDS011;58179;48.776;9.124;2022-09-17T14:57:45;3.50;;;1.38;;
55913;SDS011;58179;48.776;9.124;2022-09-17T15:00:16;3.95;;;1.42;;
55913;SDS011;58179;48.776;9.124;2022-09-17T15:02:50;3.40;;;1.30;;
55913;SDS011;58179;48.776;9.124;2022-09-17T15:05:23;4.25;;;1.45;;
55913;SDS011;58179;48.776;9.124;2022-09-17T15:08:17;3.63;;;1.55;;
55913;SDS011;58179;48.776;9.124;2022-09-17T15:10:55;4.65;;;1.50;;
55913;SDS011;58179;48.776;9.124;2022-09-17T15:13:24;4.20;;;1.40;;
55913;SDS011;58179;48.776;9.124;2022-09-17T15:16:02;6.57;;;1.60;;
55913;SDS011;58179;48.776;9.124;2022-09-17T15:18:37;4.13;;;1.45;;
55913;SDS011;58179;48.776;9.124;2022-09-17T15:21:10;3.35;;;1.70;;
55913;SDS011;58179;48.776;9.124;2022-09-17T15:23:50;6.43;;;1.77;;
55913;SDS011;58179;48.776;9.124;2022-09-17T15:26:21;3.73;;;1.67;;
55913;SDS011;58179;48.776;9.124;2022-09-17T15:28:55;6.18;;;2.20;;
55913;SDS011;58179;48.776;9.124;2022-09-17T15:31:24;4.93;;;2.00;;
55913;SDS011;58179;48.776;9.124;2022-09-17T15:33:54;4.40;;;1.97;;
55913;SDS011;58179;48.776;9.124;2022-09-17T15:36:24;6.97;;;2.40;;
55913;SDS011;58179;48.776;9.124;2022-09-17T15:38:53;7.10;;;1.97;;
55913;SDS011;58179;48.776;9.124;2022-09-17T15:41:24;5.88;;;1.90;;